Time;durP1;ratioP1;P1;durP2;ratioP2;P2;SDS_P1;SDS_P2;PMS_P1;PMS_P2;Temp;Humidity;BMP_temperature;BMP_pressure;BME280_temperature;BME280_humidity;BME280_pressure;Samples;Min_cycle;Max_cycle;Signal;HPM_P1;HPM_P2
2023/12/06 00:01:26;;;;;;;37.30;20.05;;;;;;;;;;5062705;28;20040;-59
2023/12/06 00:03:52;;;;;;;47.58;22.10;;;;;;;;;;5054538;28;20091;-59
2023/12/06 00:06:19;;;;;;;43.72;20.35;;;;;;;;;;5056493;28;20045;-59
2023/12/06 00:08:45;;;;;;;40.90;19.48;;;;;;;;;;5062595;28;20482;-59
2023/12/06 00:11:12;;;;;;;40.85;19.50;;;;;;;;;;5062275;28;20052;-59
2023/12/06 00:13:38;;;;;;;40.38;20.65;;;;;;;;;;5063220;28;20054;-59
2023/12/06 00:16:04;;;;;;;39.00;19.45;;;;;;;;;;5062016;28;20037;-58
2023/12/06 00:18:30;;;;;;;42.20;20.60;;;;;;;;;;5061909;28;20055;-59
2023/12/06 00:20:56;;;;;;;43.13;19.88;;;;;;;;;;5062339;28;20056;-59
2023/12/06 00:23:22;;;;;;;42.67;19.35;;;;;;;;;;5044414;28;20055;-58
2023/12/06 00:25:48;;;;;;;42.25;20.55;;;;;;;;;;5062656;28;20064;-59
2023/12/06 00:28:14;;;;;;;41.38;19.67;;;;;;;;;;5061714;28;20044;-59
2023/12/06 00:30:40;;;;;;;40.08;19.05;;;;;;;;;;5061197;28;20047;-59
2023/12/06 00:33:06;;;;;;;47.03;22.23;;;;;;;;;;5062115;28;20144;-58
2023/12/06 00:35:32;;;;;;;48.42;21.33;;;;;;;;;;5062571;28;20040;-59
2023/12/06 00:37:58;;;;;;;45.55;21.35;;;;;;;;;;5060330;28;20055;-58
2023/12/06 00:40:24;;;;;;;38.72;19.70;;;;;;;;;;5062074;28;20044;-58
2023/12/06 00:42:50;;;;;;;44.10;19.95;;;;;;;;;;5062007;28;20036;-58
2023/12/06 00:45:16;;;;;;;43.55;20.60;;;;;;;;;;5062293;28;20521;-59
2023/12/06 00:47:42;;;;;;;42.92;20.55;;;;;;;;;;5061646;28;20101;-59
2023/12/06 00:50:08;;;;;;;42.35;21.23;;;;;;;;;;5062857;28;20061;-59
2023/12/06 00:52:34;;;;;;;43.83;20.20;;;;;;;;;;5062090;28;20041;-58
2023/12/06 00:55:00;;;;;;;41.00;19.02;;;;;;;;;;5061904;28;20032;-59
2023/12/06 00:57:26;;;;;;;48.08;21.23;;;;;;;;;;5061921;28;20486;-58
2023/12/06 00:59:52;;;;;;;43.70;20.05;;;;;;;;;;5062094;28;20040;-58
2023/12/06 01:02:18;;;;;;;46.67;21.20;;;;;;;;;;5061039;28;20067;-59
2023/12/06 01:04:46;;;;;;;41.20;20.60;;;;;;;;;;5047104;28;20454;-58
2023/12/06 01:07:12;;;;;;;42.00;21.42;;;;;;;;;;5061889;28;20151;-59
2023/12/06 01:09:38;;;;;;;44.30;20.40;;;;;;;;;;5062596;28;20135;-59
2023/12/06 01:12:04;;;;;;;42.88;19.58;;;;;;;;;;5060791;28;20082;-59
2023/12/06 01:14:30;;;;;;;42.42;19.65;;;;;;;;;;5060414;28;20205;-59
2023/12/06 01:16:56;;;;;;;46.30;20.70;;;;;;;;;;5060606;28;20040;-59
2023/12/06 01:19:22;;;;;;;43.75;20.58;;;;;;;;;;5060158;28;20048;-59
2023/12/06 01:21:48;;;;;;;47.53;21.13;;;;;;;;;;5060300;28;20653;-59
2023/12/06 01:24:14;;;;;;;50.95;21.17;;;;;;;;;;5060929;28;20117;-59
2023/12/06 01:26:40;;;;;;;51.55;21.15;;;;;;;;;;5060150;28;20045;-59
2023/12/06 01:29:08;;;;;;;44.20;19.65;;;;;;;;;;5060543;28;20047;-59
2023/12/06 01:31:34;;;;;;;45.40;19.50;;;;;;;;;;5062015;28;20045;-59
2023/12/06 01:34:00;;;;;;;45.35;20.30;;;;;;;;;;5061099;28;20032;-59
2023/12/06 01:36:26;;;;;;;45.50;20.38;;;;;;;;;;5061559;28;20048;-59
2023/12/06 01:38:53;;;;;;;46.22;19.88;;;;;;;;;;5062025;28;20040;-59
2023/12/06 01:41:19;;;;;;;54.28;21.42;;;;;;;;;;5062850;28;20132;-59
2023/12/06 01:43:44;;;;;;;47.55;20.70;;;;;;;;;;5063750;28;20537;-59
2023/12/06 01:46:11;;;;;;;44.08;19.85;;;;;;;;;;5050066;28;20040;-59
2023/12/06 01:48:37;;;;;;;44.20;19.95;;;;;;;;;;5062695;28;20040;-59
2023/12/06 01:51:04;;;;;;;47.55;19.83;;;;;;;;;;5064228;28;20041;-59
2023/12/06 01:53:31;;;;;;;43.42;20.90;;;;;;;;;;5063959;28;20123;-59
2023/12/06 01:55:57;;;;;;;42.92;21.15;;;;;;;;;;5064600;28;20041;-59
2023/12/06 01:58:23;;;;;;;52.20;21.33;;;;;;;;;;5064818;28;20102;-59
2023/12/06 02:00:50;;;;;;;41.78;19.35;;;;;;;;;;5064884;28;20043;-59
2023/12/06 02:03:16;;;;;;;40.03;20.02;;;;;;;;;;5138457;22;20060;-59
2023/12/06 02:05:43;;;;;;;45.35;20.95;;;;;;;;;;5063015;28;20052;-59
2023/12/06 02:08:09;;;;;;;42.42;19.52;;;;;;;;;;5064029;28;20072;-59
2023/12/06 02:10:35;;;;;;;43.72;20.63;;;;;;;;;;5064114;28;20044;-59
2023/12/06 02:13:01;;;;;;;48.50;20.75;;;;;;;;;;5064492;28;20045;-59
2023/12/06 02:15:27;;;;;;;45.70;20.52;;;;;;;;;;5064674;28;20044;-59
2023/12/06 02:17:53;;;;;;;39.53;19.67;;;;;;;;;;5062859;28;20110;-59
2023/12/06 02:20:20;;;;;;;39.40;19.20;;;;;;;;;;5063173;28;20045;-59
2023/12/06 02:22:46;;;;;;;40.88;20.25;;;;;;;;;;5063252;28;20040;-59
2023/12/06 02:25:15;;;;;;;49.38;20.17;;;;;;;;;;5048938;28;20048;-59
2023/12/06 02:27:42;;;;;;;41.20;18.60;;;;;;;;;;5061615;28;20520;-59
2023/12/06 02:30:09;;;;;;;42.13;18.52;;;;;;;;;;5063023;28;20059;-58
2023/12/06 02:32:35;;;;;;;42.45;18.33;;;;;;;;;;5062799;28;20060;-59
2023/12/06 02:35:03;;;;;;;42.92;18.52;;;;;;;;;;5064062;28;20044;-58
2023/12/06 02:37:30;;;;;;;38.20;19.15;;;;;;;;;;5055969;28;20037;-59
2023/12/06 02:39:56;;;;;;;35.95;18.63;;;;;;;;;;5058130;28;20094;-59
2023/12/06 02:42:22;;;;;;;42.22;17.98;;;;;;;;;;5064397;28;20071;-59
2023/12/06 02:44:48;;;;;;;38.70;17.95;;;;;;;;;;5064216;28;20101;-59
2023/12/06 02:47:14;;;;;;;39.13;17.25;;;;;;;;;;5062398;28;20627;-59
2023/12/06 02:49:40;;;;;;;33.92;17.63;;;;;;;;;;5062818;28;20553;-58
2023/12/06 02:52:06;;;;;;;37.65;16.98;;;;;;;;;;5062204;28;20079;-58
2023/12/06 02:54:33;;;;;;;31.08;15.50;;;;;;;;;;5063946;28;20052;-59
2023/12/06 02:56:59;;;;;;;33.00;17.33;;;;;;;;;;5063880;28;20071;-58
2023/12/06 02:59:24;;;;;;;37.28;16.95;;;;;;;;;;5064289;28;20048;-58
2023/12/06 03:01:50;;;;;;;37.53;18.33;;;;;;;;;;5063188;28;20048;-58
2023/12/06 03:04:16;;;;;;;35.42;17.42;;;;;;;;;;5062629;28;20109;-58
2023/12/06 03:06:42;;;;;;;35.78;17.35;;;;;;;;;;5060809;28;20736;-58
2023/12/06 03:09:08;;;;;;;39.03;18.02;;;;;;;;;;5062418;28;20125;-58
2023/12/06 03:11:34;;;;;;;35.20;17.42;;;;;;;;;;5062259;28;20470;-58
2023/12/06 03:14:01;;;;;;;35.58;17.23;;;;;;;;;;5062305;28;20051;-58
2023/12/06 03:16:27;;;;;;;37.28;18.70;;;;;;;;;;5062195;28;20398;-59
2023/12/06 03:18:53;;;;;;;38.40;17.17;;;;;;;;;;5061584;28;20577;-58
2023/12/06 03:21:19;;;;;;;37.65;18.42;;;;;;;;;;5063349;28;20490;-59
2023/12/06 03:23:45;;;;;;;39.80;17.05;;;;;;;;;;5063495;28;20570;-58
2023/12/06 03:26:11;;;;;;;38.97;17.33;;;;;;;;;;5062777;28;20123;-58
2023/12/06 03:28:37;;;;;;;38.22;17.98;;;;;;;;;;5062942;28;20063;-58
2023/12/06 03:31:04;;;;;;;36.38;17.75;;;;;;;;;;5063595;28;20044;-58
2023/12/06 03:33:30;;;;;;;34.40;17.52;;;;;;;;;;5061003;28;20048;-58
2023/12/06 03:35:56;;;;;;;35.58;16.27;;;;;;;;;;5063303;28;20044;-58
2023/12/06 03:38:22;;;;;;;32.85;16.38;;;;;;;;;;5062817;28;20048;-59
2023/12/06 03:40:48;;;;;;;37.28;16.00;;;;;;;;;;5063615;28;20040;-58
2023/12/06 03:43:14;;;;;;;32.17;17.13;;;;;;;;;;5063134;28;20135;-59
2023/12/06 03:45:40;;;;;;;32.90;16.40;;;;;;;;;;5062943;28;20044;-59
2023/12/06 03:48:06;;;;;;;29.58;15.40;;;;;;;;;;5062142;28;20413;-59
2023/12/06 03:50:32;;;;;;;30.52;15.40;;;;;;;;;;5062550;28;20036;-59
2023/12/06 03:52:57;;;;;;;31.40;16.40;;;;;;;;;;5061296;28;20044;-59
2023/12/06 03:55:24;;;;;;;29.55;16.02;;;;;;;;;;5062877;28;20127;-59
2023/12/06 03:57:50;;;;;;;34.45;16.48;;;;;;;;;;5063485;28;20048;-59
2023/12/06 04:00:16;;;;;;;30.10;15.25;;;;;;;;;;5062546;28;20051;-59
2023/12/06 04:02:42;;;;;;;36.17;16.60;;;;;;;;;;5061103;28;20048;-60
2023/12/06 04:05:08;;;;;;;30.50;15.48;;;;;;;;;;5062528;28;20548;-59
2023/12/06 04:07:35;;;;;;;35.30;14.65;;;;;;;;;;5062728;28;20051;-59
2023/12/06 04:10:01;;;;;;;29.95;14.70;;;;;;;;;;5062619;28;20036;-59
2023/12/06 04:12:27;;;;;;;28.77;15.30;;;;;;;;;;5062786;28;20068;-59
2023/12/06 04:14:54;;;;;;;27.88;14.48;;;;;;;;;;5062384;28;20442;-59
2023/12/06 04:17:20;;;;;;;31.08;15.02;;;;;;;;;;5061812;28;20124;-58
2023/12/06 04:19:47;;;;;;;32.67;14.80;;;;;;;;;;5062683;28;20102;-59
2023/12/06 04:22:13;;;;;;;28.05;13.98;;;;;;;;;;5062238;28;20056;-58
2023/12/06 04:24:39;;;;;;;34.67;14.55;;;;;;;;;;5062906;28;20044;-58
2023/12/06 04:27:05;;;;;;;31.60;15.50;;;;;;;;;;5062337;28;20122;-58
2023/12/06 04:29:32;;;;;;;29.00;15.25;;;;;;;;;;5062749;28;20114;-59
2023/12/06 04:31:58;;;;;;;24.63;13.98;;;;;;;;;;5061682;28;20049;-59
2023/12/06 04:34:24;;;;;;;27.02;14.80;;;;;;;;;;5062141;28;20096;-59
2023/12/06 04:36:50;;;;;;;26.83;13.52;;;;;;;;;;5062521;28;20516;-58
2023/12/06 04:39:16;;;;;;;25.73;14.18;;;;;;;;;;5061739;28;20131;-58
2023/12/06 04:41:42;;;;;;;27.85;15.00;;;;;;;;;;5062558;28;20040;-59
2023/12/06 04:44:08;;;;;;;26.23;14.88;;;;;;;;;;5061936;28;20048;-58
2023/12/06 04:46:34;;;;;;;24.17;13.80;;;;;;;;;;5062748;28;20080;-58
2023/12/06 04:48:59;;;;;;;28.02;15.57;;;;;;;;;;5061432;28;20045;-58
2023/12/06 04:51:25;;;;;;;31.13;15.07;;;;;;;;;;5062154;28;20052;-59
2023/12/06 04:53:51;;;;;;;30.67;14.68;;;;;;;;;;5062259;28;20109;-60
2023/12/06 04:56:17;;;;;;;22.67;12.77;;;;;;;;;;5062270;28;20048;-60
2023/12/06 04:58:43;;;;;;;24.10;12.68;;;;;;;;;;5056388;28;20052;-61
2023/12/06 05:01:09;;;;;;;26.90;13.23;;;;;;;;;;5045440;28;20033;-60
2023/12/06 05:03:35;;;;;;;29.77;12.77;;;;;;;;;;5042627;28;20517;-60
2023/12/06 05:06:03;;;;;;;22.65;12.95;;;;;;;;;;5041868;28;20559;-60
2023/12/06 05:08:29;;;;;;;24.27;12.93;;;;;;;;;;5058891;28;20322;-61
2023/12/06 05:10:55;;;;;;;21.83;12.02;;;;;;;;;;5061176;28;20533;-61
2023/12/06 05:13:21;;;;;;;22.00;12.68;;;;;;;;;;5061243;28;20051;-60
2023/12/06 05:15:47;;;;;;;21.92;12.10;;;;;;;;;;5062331;28;20046;-60
2023/12/06 05:18:13;;;;;;;21.63;12.25;;;;;;;;;;5064106;28;20040;-60
2023/12/06 05:20:39;;;;;;;21.38;11.82;;;;;;;;;;5064673;28;20040;-60
2023/12/06 05:23:05;;;;;;;26.13;12.90;;;;;;;;;;5064811;28;20044;-60
2023/12/06 05:25:32;;;;;;;22.92;12.35;;;;;;;;;;5062535;28;20048;-60
2023/12/06 05:27:58;;;;;;;25.60;12.10;;;;;;;;;;5064618;28;20047;-60
2023/12/06 05:30:24;;;;;;;23.45;11.32;;;;;;;;;;5063769;28;20047;-59
2023/12/06 05:32:51;;;;;;;22.42;11.95;;;;;;;;;;5063665;28;20304;-60
2023/12/06 05:35:17;;;;;;;28.02;12.55;;;;;;;;;;5064844;28;20044;-63
2023/12/06 05:37:43;;;;;;;21.00;12.02;;;;;;;;;;5064207;28;20128;-61
2023/12/06 05:40:09;;;;;;;23.02;12.55;;;;;;;;;;5064744;28;20125;-59
2023/12/06 05:42:35;;;;;;;21.75;11.68;;;;;;;;;;5064240;28;20687;-60
2023/12/06 05:45:04;;;;;;;24.45;12.48;;;;;;;;;;5064131;28;20055;-59
2023/12/06 05:47:30;;;;;;;25.70;13.00;;;;;;;;;;5062558;28;20048;-60
2023/12/06 05:49:56;;;;;;;24.38;12.88;;;;;;;;;;5063897;28;20452;-60
2023/12/06 05:52:22;;;;;;;26.70;14.05;;;;;;;;;;5048005;28;20649;-60
2023/12/06 05:54:48;;;;;;;24.20;13.50;;;;;;;;;;5050163;28;20037;-60
2023/12/06 05:57:14;;;;;;;21.58;12.98;;;;;;;;;;5047825;28;20033;-60
2023/12/06 05:59:40;;;;;;;20.65;12.63;;;;;;;;;;5049360;28;20036;-59
2023/12/06 06:02:06;;;;;;;22.90;12.45;;;;;;;;;;5052333;28;20040;-60
2023/12/06 06:04:32;;;;;;;22.75;12.85;;;;;;;;;;5064620;28;20143;-59
2023/12/06 06:06:58;;;;;;;24.40;12.38;;;;;;;;;;5064689;28;20383;-59
2023/12/06 06:09:24;;;;;;;22.83;12.73;;;;;;;;;;5064904;28;20040;-60
2023/12/06 06:11:50;;;;;;;22.20;12.25;;;;;;;;;;5062368;28;20045;-59
2023/12/06 06:14:16;;;;;;;20.23;11.85;;;;;;;;;;5064295;28;20505;-60
2023/12/06 06:16:42;;;;;;;27.25;13.38;;;;;;;;;;5063481;28;20051;-59
2023/12/06 06:19:08;;;;;;;22.25;13.10;;;;;;;;;;5053331;28;20466;-59
2023/12/06 06:21:34;;;;;;;27.52;13.85;;;;;;;;;;5056202;28;20763;-59
2023/12/06 06:24:00;;;;;;;22.73;12.93;;;;;;;;;;5051413;28;20124;-60
2023/12/06 06:26:26;;;;;;;25.13;14.93;;;;;;;;;;5059418;28;20045;-59
2023/12/06 06:28:52;;;;;;;23.65;12.45;;;;;;;;;;5056581;28;20069;-60
2023/12/06 06:31:18;;;;;;;23.25;13.20;;;;;;;;;;5057487;28;20143;-59
2023/12/06 06:33:44;;;;;;;26.85;14.13;;;;;;;;;;5062114;28;20075;-59
2023/12/06 06:36:10;;;;;;;26.80;13.85;;;;;;;;;;5061554;28;20041;-59
2023/12/06 06:38:37;;;;;;;24.02;13.27;;;;;;;;;;5051444;28;20510;-59
2023/12/06 06:41:04;;;;;;;23.10;13.63;;;;;;;;;;5057869;28;20070;-59
2023/12/06 06:43:30;;;;;;;25.52;14.10;;;;;;;;;;5048983;28;20047;-59
2023/12/06 06:45:56;;;;;;;23.23;13.02;;;;;;;;;;5044776;28;20418;-59
2023/12/06 06:48:22;;;;;;;23.38;11.98;;;;;;;;;;5045303;28;20037;-59
2023/12/06 06:50:48;;;;;;;22.50;13.20;;;;;;;;;;5052574;28;20033;-59
2023/12/06 06:53:14;;;;;;;22.52;13.23;;;;;;;;;;5062832;28;20049;-59
2023/12/06 06:55:40;;;;;;;23.55;13.27;;;;;;;;;;5062416;28;20040;-59
2023/12/06 06:58:06;;;;;;;22.08;12.93;;;;;;;;;;5063794;28;20044;-59
2023/12/06 07:00:32;;;;;;;26.58;13.32;;;;;;;;;;5064221;28;20044;-59
2023/12/06 07:02:58;;;;;;;24.35;14.02;;;;;;;;;;5056069;28;20183;-59
2023/12/06 07:05:24;;;;;;;28.50;14.00;;;;;;;;;;5062452;28;20052;-60
2023/12/06 07:07:50;;;;;;;25.17;13.98;;;;;;;;;;5057320;28;20041;-59
2023/12/06 07:10:17;;;;;;;23.60;12.38;;;;;;;;;;5062051;28;20135;-58
2023/12/06 07:12:43;;;;;;;27.73;13.70;;;;;;;;;;5063611;28;20048;-59
2023/12/06 07:15:14;;;;;;;22.52;12.93;;;;;;;;;;5062664;28;20040;-59
2023/12/06 07:17:41;;;;;;;20.65;12.60;;;;;;;;;;5062071;28;20062;-59
2023/12/06 07:20:08;;;;;;;28.35;13.27;;;;;;;;;;5061407;28;20041;-59
2023/12/06 07:22:34;;;;;;;23.45;13.68;;;;;;;;;;5060949;28;20048;-59
2023/12/06 07:25:00;;;;;;;24.42;14.43;;;;;;;;;;5060948;28;20057;-59
2023/12/06 07:27:26;;;;;;;22.33;13.10;;;;;;;;;;5060512;28;20044;-59
2023/12/06 07:29:53;;;;;;;25.83;13.20;;;;;;;;;;5061163;28;20051;-59
2023/12/06 07:32:19;;;;;;;26.20;12.50;;;;;;;;;;5059999;28;20060;-59
2023/12/06 07:34:44;;;;;;;21.33;12.75;;;;;;;;;;5062012;28;20036;-59
2023/12/06 07:37:10;;;;;;;18.08;10.40;;;;;;;;;;5060925;28;20044;-59
2023/12/06 07:39:37;;;;;;;19.35;11.48;;;;;;;;;;5041423;28;20048;-59
2023/12/06 07:42:03;;;;;;;21.23;11.80;;;;;;;;;;5058769;28;20049;-59
2023/12/06 07:44:29;;;;;;;19.40;11.75;;;;;;;;;;5063156;28;20032;-59
2023/12/06 07:46:54;;;;;;;20.92;11.93;;;;;;;;;;5062615;28;20131;-59
2023/12/06 07:49:20;;;;;;;17.40;10.77;;;;;;;;;;5062859;28;20041;-59
2023/12/06 07:51:46;;;;;;;18.83;10.40;;;;;;;;;;5062677;28;20564;-59
2023/12/06 07:54:12;;;;;;;21.17;11.15;;;;;;;;;;5078513;28;20094;-59
2023/12/06 07:56:40;;;;;;;19.85;11.05;;;;;;;;;;5062653;28;20040;-59
2023/12/06 07:59:06;;;;;;;20.42;11.35;;;;;;;;;;5062713;28;20059;-59
2023/12/06 08:01:32;;;;;;;24.38;11.65;;;;;;;;;;5061676;28;20044;-59
2023/12/06 08:03:58;;;;;;;19.77;11.55;;;;;;;;;;5062593;28;20215;-59
2023/12/06 08:06:24;;;;;;;20.27;11.32;;;;;;;;;;5063033;28;20688;-59
2023/12/06 08:08:50;;;;;;;21.00;11.65;;;;;;;;;;5062241;28;20595;-59
2023/12/06 08:11:17;;;;;;;21.25;11.13;;;;;;;;;;5061492;28;20541;-59
2023/12/06 08:13:43;;;;;;;19.30;10.75;;;;;;;;;;5062411;28;20199;-59
2023/12/06 08:16:09;;;;;;;21.85;10.80;;;;;;;;;;5062093;28;20145;-60
2023/12/06 08:18:35;;;;;;;19.25;10.73;;;;;;;;;;5062687;28;20115;-59
2023/12/06 08:21:04;;;;;;;23.42;11.60;;;;;;;;;;5062523;28;20089;-59
2023/12/06 08:23:30;;;;;;;19.25;11.82;;;;;;;;;;5062129;28;20505;-59
2023/12/06 08:25:56;;;;;;;19.40;11.68;;;;;;;;;;5061990;28;20048;-59
2023/12/06 08:28:22;;;;;;;18.30;10.30;;;;;;;;;;5062806;28;20045;-59
2023/12/06 08:30:48;;;;;;;17.88;10.70;;;;;;;;;;5062178;28;20664;-59
2023/12/06 08:33:15;;;;;;;21.70;11.30;;;;;;;;;;5061418;28;20135;-59
2023/12/06 08:35:41;;;;;;;19.23;11.00;;;;;;;;;;5062212;28;20045;-59
2023/12/06 08:38:07;;;;;;;21.98;12.57;;;;;;;;;;5062237;28;20048;-59
2023/12/06 08:40:33;;;;;;;21.27;12.15;;;;;;;;;;5061521;28;20417;-59
2023/12/06 08:43:00;;;;;;;18.88;10.55;;;;;;;;;;5061937;28;20074;-59
2023/12/06 08:45:26;;;;;;;15.80;9.90;;;;;;;;;;5061694;28;20036;-60
2023/12/06 08:47:52;;;;;;;21.83;11.98;;;;;;;;;;5060252;28;20482;-59
2023/12/06 08:50:18;;;;;;;15.55;10.02;;;;;;;;;;5064573;28;20064;-59
2023/12/06 08:52:45;;;;;;;21.88;10.93;;;;;;;;;;5065986;28;20133;-58
2023/12/06 08:55:11;;;;;;;20.50;10.82;;;;;;;;;;5065033;28;20055;-59
2023/12/06 08:57:37;;;;;;;17.17;10.45;;;;;;;;;;5066614;28;20045;-59
2023/12/06 09:00:07;;;;;;;24.60;12.05;;;;;;;;;;5066484;28;20112;-59
2023/12/06 09:02:33;;;;;;;17.08;11.10;;;;;;;;;;5065800;28;20044;-59
2023/12/06 09:04:59;;;;;;;18.10;10.57;;;;;;;;;;5065210;28;20456;-59
2023/12/06 09:07:25;;;;;;;17.48;10.15;;;;;;;;;;5065432;28;20044;-59
2023/12/06 09:09:51;;;;;;;20.15;10.88;;;;;;;;;;5066334;28;20052;-59
2023/12/06 09:12:17;;;;;;;21.92;10.68;;;;;;;;;;5064533;28;20052;-59
2023/12/06 09:14:44;;;;;;;21.13;11.20;;;;;;;;;;5065851;28;20048;-59
2023/12/06 09:17:09;;;;;;;16.83;10.80;;;;;;;;;;5064938;28;20040;-59
2023/12/06 09:19:35;;;;;;;17.80;9.48;;;;;;;;;;5065788;28;20049;-59
2023/12/06 09:22:01;;;;;;;21.35;11.07;;;;;;;;;;5065466;28;20097;-59
2023/12/06 09:24:27;;;;;;;22.30;11.60;;;;;;;;;;5065666;28;20070;-59
2023/12/06 09:26:53;;;;;;;16.65;10.10;;;;;;;;;;5047238;28;20576;-59
2023/12/06 09:29:19;;;;;;;27.00;11.73;;;;;;;;;;5065224;28;20052;-58
2023/12/06 09:31:45;;;;;;;18.80;11.38;;;;;;;;;;5064651;28;20041;-58
2023/12/06 09:34:11;;;;;;;28.15;12.77;;;;;;;;;;5065192;28;20068;-58
2023/12/06 09:36:39;;;;;;;18.85;11.18;;;;;;;;;;5065588;28;20049;-58
2023/12/06 09:39:05;;;;;;;20.50;11.65;;;;;;;;;;5065789;28;20138;-58
2023/12/06 09:41:34;;;;;;;24.02;12.38;;;;;;;;;;5065372;28;21008;-58
2023/12/06 09:44:00;;;;;;;17.85;11.13;;;;;;;;;;5065051;28;20500;-58
2023/12/06 09:46:27;;;;;;;23.15;11.02;;;;;;;;;;5064732;28;20044;-58
2023/12/06 09:48:53;;;;;;;20.73;11.43;;;;;;;;;;5064531;28;20044;-58
2023/12/06 09:51:19;;;;;;;18.58;11.38;;;;;;;;;;5065166;28;20508;-58
2023/12/06 09:53:46;;;;;;;20.73;11.85;;;;;;;;;;5065110;28;20052;-58
2023/12/06 09:56:13;;;;;;;21.58;12.07;;;;;;;;;;5065001;28;20097;-58
2023/12/06 09:58:39;;;;;;;20.33;11.50;;;;;;;;;;5065339;28;20410;-58
2023/12/06 10:01:05;;;;;;;27.42;12.55;;;;;;;;;;5064144;28;20165;-58
2023/12/06 10:03:31;;;;;;;22.83;12.18;;;;;;;;;;5064604;28;20052;-58
2023/12/06 10:05:59;;;;;;;21.90;11.60;;;;;;;;;;5063304;28;20072;-58
2023/12/06 10:08:25;;;;;;;23.52;12.50;;;;;;;;;;5064649;28;20044;-58
2023/12/06 10:11:12;;;;;;;21.58;11.25;;;;;;;;;;5063713;28;20049;-58
2023/12/06 10:13:39;;;;;;;23.45;12.43;;;;;;;;;;5065082;28;20505;-59
2023/12/06 10:16:15;;;;;;;20.63;10.88;;;;;;;;;;5063676;28;20452;-59
2023/12/06 10:18:41;;;;;;;22.55;11.70;;;;;;;;;;5064761;28;20040;-59
2023/12/06 10:21:08;;;;;;;23.30;12.15;;;;;;;;;;5064745;28;20040;-58
2023/12/06 10:23:35;;;;;;;21.52;11.02;;;;;;;;;;5064144;28;20106;-59
2023/12/06 10:26:02;;;;;;;18.85;11.23;;;;;;;;;;5064427;28;20089;-59
2023/12/06 10:28:28;;;;;;;22.42;11.63;;;;;;;;;;5064598;28;20055;-59
2023/12/06 10:31:01;;;;;;;20.45;11.70;;;;;;;;;;5063337;28;20040;-59
2023/12/06 10:33:29;;;;;;;23.52;11.93;;;;;;;;;;5064500;28;20044;-59
2023/12/06 10:35:56;;;;;;;26.13;12.23;;;;;;;;;;5064451;28;20590;-59
2023/12/06 10:38:22;;;;;;;22.25;11.15;;;;;;;;;;5064209;28;20052;-59
2023/12/06 10:40:48;;;;;;;21.13;11.90;;;;;;;;;;5063839;28;20040;-59
2023/12/06 10:43:14;;;;;;;20.13;10.75;;;;;;;;;;5063549;28;20523;-59
2023/12/06 10:45:41;;;;;;;21.98;10.85;;;;;;;;;;5064307;28;20044;-59
2023/12/06 10:48:07;;;;;;;23.65;11.57;;;;;;;;;;5062539;28;20503;-59
2023/12/06 10:50:34;;;;;;;26.10;10.95;;;;;;;;;;5063971;28;20037;-59
2023/12/06 10:53:03;;;;;;;21.45;11.98;;;;;;;;;;5063717;28;20094;-59
2023/12/06 10:55:31;;;;;;;22.98;10.95;;;;;;;;;;5064104;28;20048;-59
2023/12/06 10:57:58;;;;;;;27.08;11.88;;;;;;;;;;5063544;28;20529;-59
2023/12/06 11:00:26;;;;;;;19.35;10.30;;;;;;;;;;5063927;28;20056;-59
2023/12/06 11:02:52;;;;;;;21.00;10.95;;;;;;;;;;5062349;28;20048;-59
2023/12/06 11:05:19;;;;;;;18.83;10.75;;;;;;;;;;5063732;28;20041;-59
2023/12/06 11:07:58;;;;;;;18.17;10.60;;;;;;;;;;5063768;28;20041;-59
2023/12/06 11:10:31;;;;;;;18.70;11.73;;;;;;;;;;5063534;28;20071;-59
2023/12/06 11:13:02;;;;;;;19.73;11.60;;;;;;;;;;5062860;28;20040;-59
2023/12/06 11:15:47;;;;;;;22.80;10.60;;;;;;;;;;5063320;28;20048;-60
2023/12/06 11:18:17;;;;;;;18.70;10.45;;;;;;;;;;5063817;28;20044;-59
2023/12/06 11:20:44;;;;;;;16.25;9.88;;;;;;;;;;5063618;28;20610;-59
2023/12/06 11:23:10;;;;;;;22.75;10.25;;;;;;;;;;5063479;28;20063;-59
2023/12/06 11:25:45;;;;;;;17.05;9.95;;;;;;;;;;5063429;28;20094;-60
2023/12/06 11:28:14;;;;;;;17.40;9.90;;;;;;;;;;5063225;28;20041;-60
2023/12/06 11:30:50;;;;;;;19.65;11.02;;;;;;;;;;5062219;28;20056;-60
2023/12/06 11:33:17;;;;;;;16.67;10.15;;;;;;;;;;5063433;28;20032;-59
2023/12/06 11:35:50;;;;;;;18.60;10.43;;;;;;;;;;5063484;28;20045;-59
2023/12/06 11:38:16;;;;;;;18.65;10.88;;;;;;;;;;5063214;28;20540;-59
2023/12/06 11:40:52;;;;;;;20.90;10.55;;;;;;;;;;5063296;28;20099;-60
2023/12/06 11:43:19;;;;;;;21.27;10.48;;;;;;;;;;5062688;28;20044;-59
2023/12/06 11:45:46;;;;;;;20.67;10.85;;;;;;;;;;5062263;28;20059;-60
2023/12/06 11:48:13;;;;;;;21.92;10.38;;;;;;;;;;5063675;28;20048;-60
2023/12/06 11:50:46;;;;;;;15.52;10.18;;;;;;;;;;5062654;28;20109;-60
2023/12/06 11:53:12;;;;;;;18.08;10.77;;;;;;;;;;5062868;28;20041;-60
2023/12/06 11:55:38;;;;;;;18.60;10.82;;;;;;;;;;5062810;28;20561;-60
2023/12/06 11:58:08;;;;;;;19.90;9.43;;;;;;;;;;5062649;28;20049;-60
2023/12/06 12:00:34;;;;;;;19.77;10.82;;;;;;;;;;5061038;28;20028;-60
2023/12/06 12:03:01;;;;;;;18.73;10.23;;;;;;;;;;5062865;28;20127;-60
2023/12/06 12:05:28;;;;;;;23.23;9.50;;;;;;;;;;5062551;28;20139;-60
2023/12/06 12:07:54;;;;;;;19.33;10.20;;;;;;;;;;5062804;28;20044;-60
2023/12/06 12:10:20;;;;;;;17.70;9.98;;;;;;;;;;5062360;28;20037;-60
2023/12/06 12:12:48;;;;;;;18.58;9.48;;;;;;;;;;5062795;28;20082;-60
2023/12/06 12:15:15;;;;;;;17.55;10.07;;;;;;;;;;5062988;28;20048;-60
2023/12/06 12:17:42;;;;;;;19.93;10.13;;;;;;;;;;5061986;28;20129;-60
2023/12/06 12:20:08;;;;;;;16.00;9.35;;;;;;;;;;5062316;28;20044;-60
2023/12/06 12:22:48;;;;;;;17.73;9.45;;;;;;;;;;5061689;28;20405;-60
2023/12/06 12:25:14;;;;;;;17.02;9.30;;;;;;;;;;5061311;28;20052;-60
2023/12/06 12:27:40;;;;;;;13.15;8.90;;;;;;;;;;5062528;28;20137;-60
2023/12/06 12:30:10;;;;;;;17.30;8.98;;;;;;;;;;5062306;28;20044;-60
2023/12/06 12:32:46;;;;;;;15.45;8.85;;;;;;;;;;5061556;28;20051;-60
2023/12/06 12:35:12;;;;;;;18.98;10.40;;;;;;;;;;5061832;28;20123;-60
2023/12/06 12:37:39;;;;;;;15.25;9.45;;;;;;;;;;5053557;28;20040;-60
2023/12/06 12:40:09;;;;;;;18.15;9.35;;;;;;;;;;5062195;28;20590;-60
2023/12/06 12:42:39;;;;;;;14.75;9.07;;;;;;;;;;5050561;28;20049;-60
2023/12/06 12:45:06;;;;;;;13.25;8.60;;;;;;;;;;5057614;28;20040;-60
2023/12/06 12:47:32;;;;;;;14.57;8.82;;;;;;;;;;5056186;28;20060;-60
2023/12/06 12:49:58;;;;;;;19.42;9.10;;;;;;;;;;5060289;28;20049;-60
2023/12/06 12:52:24;;;;;;;14.32;8.38;;;;;;;;;;5060984;28;20048;-59
2023/12/06 12:54:52;;;;;;;16.13;8.77;;;;;;;;;;5049945;28;20044;-60
2023/12/06 12:57:18;;;;;;;14.75;8.45;;;;;;;;;;5061716;28;20060;-60
2023/12/06 12:59:45;;;;;;;13.68;8.45;;;;;;;;;;5061456;28;20075;-60
2023/12/06 13:02:11;;;;;;;15.00;8.10;;;;;;;;;;5060773;28;20098;-60
2023/12/06 13:04:37;;;;;;;14.65;8.98;;;;;;;;;;5060948;28;20068;-60
2023/12/06 13:07:04;;;;;;;16.23;8.18;;;;;;;;;;5055059;28;20044;-60
2023/12/06 13:09:32;;;;;;;17.48;8.25;;;;;;;;;;5044937;28;20388;-60
2023/12/06 13:11:58;;;;;;;17.67;7.35;;;;;;;;;;5043998;28;20453;-60
2023/12/06 13:14:25;;;;;;;18.92;7.85;;;;;;;;;;5061382;28;20706;-60
2023/12/06 13:16:51;;;;;;;13.88;7.60;;;;;;;;;;5050901;28;20063;-60
2023/12/06 13:19:17;;;;;;;15.50;8.07;;;;;;;;;;5061995;28;20044;-60
2023/12/06 13:21:43;;;;;;;13.95;8.40;;;;;;;;;;5061666;28;20500;-60
2023/12/06 13:24:09;;;;;;;15.43;8.02;;;;;;;;;;5062008;28;20044;-60
2023/12/06 13:26:35;;;;;;;15.23;7.93;;;;;;;;;;5061721;28;20059;-60
2023/12/06 13:29:01;;;;;;;20.25;8.27;;;;;;;;;;5061748;28;20028;-60
2023/12/06 13:31:28;;;;;;;13.80;7.57;;;;;;;;;;5061246;28;20055;-60
2023/12/06 13:33:54;;;;;;;13.25;7.60;;;;;;;;;;5048627;28;20144;-60
2023/12/06 13:36:20;;;;;;;16.15;8.63;;;;;;;;;;5058594;28;20040;-60
2023/12/06 13:38:46;;;;;;;12.02;7.55;;;;;;;;;;5059104;28;20449;-60
2023/12/06 13:41:12;;;;;;;13.57;7.57;;;;;;;;;;5064442;28;20040;-60
2023/12/06 13:43:38;;;;;;;12.73;7.53;;;;;;;;;;5057383;28;20467;-60
2023/12/06 13:46:04;;;;;;;13.43;8.13;;;;;;;;;;5050370;28;20044;-60
2023/12/06 13:48:30;;;;;;;14.65;7.82;;;;;;;;;;5063230;28;20532;-59
2023/12/06 13:50:56;;;;;;;11.88;7.78;;;;;;;;;;5047233;28;20053;-60
2023/12/06 13:53:23;;;;;;;10.50;6.93;;;;;;;;;;5046661;28;20033;-60
2023/12/06 13:55:49;;;;;;;14.88;8.23;;;;;;;;;;5044894;28;20056;-60
2023/12/06 13:58:15;;;;;;;11.27;7.55;;;;;;;;;;5048412;28;20075;-60
2023/12/06 14:00:41;;;;;;;14.23;6.68;;;;;;;;;;5047992;28;20391;-60
2023/12/06 14:03:07;;;;;;;21.60;7.40;;;;;;;;;;5045491;28;20057;-60
2023/12/06 14:05:34;;;;;;;12.00;7.13;;;;;;;;;;5064114;28;20529;-60
2023/12/06 14:08:00;;;;;;;14.37;6.80;;;;;;;;;;5064939;28;20402;-60
2023/12/06 14:10:27;;;;;;;13.25;7.05;;;;;;;;;;5064480;28;20799;-60
2023/12/06 14:12:53;;;;;;;12.63;7.05;;;;;;;;;;5064351;28;20036;-60
2023/12/06 14:15:19;;;;;;;11.13;6.85;;;;;;;;;;5062689;28;20154;-60